Taurus — WDB5562 — position and weather

sailwx.info

Track history (hours):
 
Tides and Currents Weather Stations Pressure Air Temp Water Temp Dewpoint Dewpoint Depression Visibility Wind Speed Wind Dir Waves Ship Positions

Taurus

Owner: Kirby Offshore Marine, LLC, Seattle, WA. More information available from US FCC via Universal Licensing System and Coast Guard Vessel Documentation Center.

Last reported at 2017-Nov-17 19:30 UTC. Time now 2017-Nov-17 19:57 UTC.
Position N 39°54' W 075°08'.

Length 24 m.

Type: Ship (hazmat cat B). MMSI: 366910990.

Date/timePositionNaut miles runAvg speedWind from/ knotsBaromVisibWave heightAir tempDewpointWater temp
2017-Nov-17 19:30N 39°54' W 075°08'3 6.0
2017-Nov-17 19:00N 39°57' W 075°08'0 0.0
2017-Nov-17 18:31N 39°57' W 075°08'0 0.0
2017-Nov-17 18:00N 39°57' W 075°08'0 0.0
2017-Nov-17 17:30N 39°57' W 075°08'0 0.2
2017-Nov-17 17:01N 39°57' W 075°08'3 6.9
2017-Nov-17 16:30N 39°54' W 075°08'4 8.0
2017-Nov-17 16:00N 39°52' W 075°13'5 9.9
2017-Nov-17 15:30N 39°51' W 075°19'4 7.6
2017-Nov-17 15:00N 39°49' W 075°23'2 3.8
2017-Nov-17 14:30N 39°48' W 075°25'0 0.1
2017-Nov-17 14:00N 39°48' W 075°25'0 0.4
2017-Nov-17 13:30N 39°48' W 075°25'1 2.0
2017-Nov-17 13:00N 39°49' W 075°24'1 2.3
2017-Nov-17 12:30N 39°50' W 075°23'0 0.0
2017-Nov-16 19:24N 39°50' W 075°23'0 0.0
2017-Nov-16 19:00N 39°50' W 075°23'0 0.0
2017-Nov-16 18:31N 39°50' W 075°23'0 0.0
2017-Nov-16 18:01N 39°50' W 075°23'0 0.0
2017-Nov-16 17:31N 39°50' W 075°23'0 0.1
2017-Nov-16 17:00N 39°50' W 075°23'1 1.9
2017-Nov-16 16:30N 39°49' W 075°24'1 2.1
2017-Nov-16 16:01N 39°50' W 075°23'0 0.0
2017-Nov-16 15:31N 39°50' W 075°23'0 0.0
2017-Nov-16 15:01N 39°50' W 075°23'0 0.0
2017-Nov-16 14:31N 39°50' W 075°23'0 0.0
2017-Nov-16 14:01N 39°50' W 075°23'0 0.0
2017-Nov-16 13:30N 39°50' W 075°23'0 0.1
2017-Nov-16 13:00N 39°50' W 075°23'1 1.7
2017-Nov-16 12:31N 39°50' W 075°22'2 4.3
2017-Nov-16 12:00N 39°51' W 075°19'1 2.8
2017-Nov-16 11:30N 39°51' W 075°18'2 4.0
2017-Nov-16 11:00N 39°51' W 075°20'2 4.8
2017-Nov-16 10:30N 39°50' W 075°23'0 0.0
2017-Nov-15 01:30N 39°50' W 075°23'0 0.1
2017-Nov-15 01:00N 39°50' W 075°23'2 3.6
2017-Nov-15 00:30N 39°48' W 075°25'4 8.2
2017-Nov-15 00:01N 39°46' W 075°29'4 8.3
2017-Nov-14 23:30N 39°42' W 075°31'4 7.8
2017-Nov-14 23:00N 39°39' W 075°33'4 7.2
2017-Nov-14 22:30N 39°35' W 075°33'2 4.3
2017-Nov-14 22:00N 39°33' W 075°32'2 4.4
2017-Nov-14 21:30N 39°34' W 075°29'0 0.2
2017-Nov-14 21:00N 39°34' W 075°29'3 5.9
2017-Nov-14 20:30N 39°33' W 075°32'4 7.5
2017-Nov-14 20:00N 39°36' W 075°34'5 9.5
2017-Nov-14 19:30N 39°40' W 075°32'510.6
2017-Nov-14 19:01N 39°45' W 075°29'510.2
2017-Nov-14 18:30N 39°49' W 075°24'1 1.0
2017-Nov-14 18:00N 39°49' W 075°23'2 4.7
2017-Nov-14 17:30N 39°50' W 075°21'5 9.0
2017-Nov-14 17:00N 39°51' W 075°16'4 8.5
2017-Nov-14 16:30N 39°53' W 075°11'3 5.8
2017-Nov-14 16:01N 39°55' W 075°08'0 0.1
2017-Nov-14 15:30N 39°55' W 075°08'0 0.0
2017-Nov-14 15:00N 39°55' W 075°08'0 0.1
2017-Nov-14 14:31N 39°55' W 075°08'0 0.1
2017-Nov-14 14:01N 39°55' W 075°08'0 0.1
2017-Nov-14 13:31N 39°55' W 075°08'0 0.1
2017-Nov-14 13:01N 39°55' W 075°08'3 6.5
2017-Nov-14 12:30N 39°58' W 075°07'2 3.7
2017-Nov-14 12:00N 39°59' W 075°05'2 4.9
2017-Nov-14 11:30N 39°58' W 075°07'4 8.5
2017-Nov-14 11:01N 39°54' W 075°08'3 5.6
2017-Nov-14 10:31N 39°54' W 075°12'1 1.7
2017-Nov-14 10:00N 39°54' W 075°13'1 1.5
2017-Nov-14 09:31N 39°54' W 075°12'0 0.0
2017-Nov-14 09:01N 39°54' W 075°12'0 0.0
2017-Nov-14 08:31N 39°54' W 075°12'0 0.0
2017-Nov-14 08:01N 39°54' W 075°12'0 0.0
2017-Nov-14 07:31N 39°54' W 075°12'0 0.0
2017-Nov-14 07:01N 39°54' W 075°12'0 0.0
2017-Nov-14 06:30N 39°54' W 075°12'0 0.0
2017-Nov-14 06:01N 39°54' W 075°12'0 0.0
2017-Nov-14 05:31N 39°54' W 075°12'0 0.0
2017-Nov-14 05:01N 39°54' W 075°12'0 0.0
2017-Nov-14 04:31N 39°54' W 075°12'0 0.0
2017-Nov-14 04:01N 39°54' W 075°12'0 0.6
2017-Nov-14 03:31N 39°53' W 075°12'1 1.4
2017-Nov-14 03:01N 39°53' W 075°11'3 5.5
2017-Nov-14 02:30N 39°54' W 075°08'3 6.0
2017-Nov-14 02:00N 39°57' W 075°08'3 5.1
2017-Nov-14 01:31N 39°58' W 075°06'1 2.5
2017-Nov-14 01:00N 39°59' W 075°04'0 1.0
2017-Nov-14 00:31N 39°59' W 075°05'0 0.0
2017-Nov-14 00:01N 39°59' W 075°05'0 0.0
2017-Nov-13 23:30N 39°59' W 075°05'0 0.0
2017-Nov-13 23:00N 39°59' W 075°05'1 2.8
2017-Nov-13 22:30N 39°58' W 075°07'4 7.6
2017-Nov-13 22:00N 39°55' W 075°08'3 0.2
2017-Nov-13 02:00N 39°54' W 075°12'0 0.0
2017-Nov-13 01:31N 39°54' W 075°12'0 0.0
2017-Nov-13 01:00N 39°54' W 075°12'0 0.0
2017-Nov-13 00:30N 39°54' W 075°12'0 0.0
2017-Nov-13 00:00N 39°54' W 075°12'0 0.0
2017-Nov-12 23:30N 39°54' W 075°12'0 0.0
2017-Nov-12 23:00N 39°54' W 075°12'0 0.0
2017-Nov-12 22:31N 39°54' W 075°12'0 0.0
2017-Nov-12 22:00N 39°54' W 075°12'0 0.0
2017-Nov-12 21:31N 39°54' W 075°12'0 0.0
2017-Nov-12 21:01N 39°54' W 075°12'0 0.0
2017-Nov-12 20:30N 39°54' W 075°12'0 0.0
2017-Nov-12 20:00N 39°54' W 075°12'0 0.0
2017-Nov-12 19:30N 39°54' W 075°12'0 0.0
2017-Nov-12 19:00N 39°54' W 075°12'0 0.0
2017-Nov-12 18:31N 39°54' W 075°12'0 0.0
2017-Nov-12 18:00N 39°54' W 075°12'0 0.0
2017-Nov-12 17:31N 39°54' W 075°12'0 0.0
2017-Nov-12 17:00N 39°54' W 075°12'0 0.0
2017-Nov-12 16:30N 39°54' W 075°12'0 0.0
2017-Nov-12 16:00N 39°54' W 075°12'0 0.0
2017-Nov-12 15:30N 39°54' W 075°12'0 0.0
2017-Nov-12 15:00N 39°54' W 075°12'0 0.0
2017-Nov-12 14:31N 39°54' W 075°12'0 0.0
2017-Nov-12 14:00N 39°54' W 075°12'0 0.0
2017-Nov-12 13:30N 39°54' W 075°12'0 0.0
2017-Nov-12 13:00N 39°54' W 075°12'0 0.0
2017-Nov-12 12:30N 39°54' W 075°12'0 0.0
2017-Nov-12 12:00N 39°54' W 075°12'0 0.0
2017-Nov-12 11:30N 39°54' W 075°12'0 0.0
2017-Nov-12 11:00N 39°54' W 075°12'0 0.0
2017-Nov-12 10:31N 39°54' W 075°12'0 0.0
2017-Nov-12 10:00N 39°54' W 075°12'0 0.0
2017-Nov-12 09:30N 39°54' W 075°12'0 0.0
2017-Nov-12 09:01N 39°54' W 075°12'0 0.0
2017-Nov-12 08:31N 39°54' W 075°12'0 0.0
2017-Nov-12 08:00N 39°54' W 075°12'0 0.0
2017-Nov-12 07:31N 39°54' W 075°12'0 0.0
2017-Nov-12 07:00N 39°54' W 075°12'0 0.0
2017-Nov-12 06:30N 39°54' W 075°12'0 0.0
2017-Nov-12 06:01N 39°54' W 075°12'0 0.0
2017-Nov-12 05:31N 39°54' W 075°12'0 0.0
2017-Nov-12 05:00N 39°54' W 075°12'0 0.0
2017-Nov-12 04:31N 39°54' W 075°12'0 0.0
2017-Nov-12 04:00N 39°54' W 075°12'0 0.0
2017-Nov-12 03:30N 39°54' W 075°12'0 0.0
2017-Nov-12 03:00N 39°54' W 075°12'0 0.0
2017-Nov-12 02:30N 39°54' W 075°12'0 0.0
2017-Nov-12 02:00N 39°54' W 075°12'0 0.0
2017-Nov-12 01:30N 39°54' W 075°12'0 0.0
2017-Nov-12 01:00N 39°54' W 075°12'0 0.0
2017-Nov-12 00:30N 39°54' W 075°12'0 0.0
2017-Nov-12 00:00N 39°54' W 075°12'0 0.0
2017-Nov-11 23:30N 39°54' W 075°12'0 0.0
2017-Nov-11 23:00N 39°54' W 075°12'0 0.0
2017-Nov-11 22:30N 39°54' W 075°12'0 0.0
2017-Nov-11 22:00N 39°54' W 075°12'0 0.0
2017-Nov-11 21:30N 39°54' W 075°12'2 3.9
2017-Nov-11 21:01N 39°52' W 075°13'2 3.5
2017-Nov-11 20:30N 39°54' W 075°13'0 0.9
2017-Nov-11 20:00N 39°54' W 075°12'2 5.0
2017-Nov-11 19:30N 39°53' W 075°09'3 6.6
2017-Nov-11 19:00N 39°56' W 075°08'3 6.6
2017-Nov-11 18:30N 39°59' W 075°05'1 1.3
2017-Nov-11 18:00N 39°59' W 075°05'0 0.0
2017-Nov-11 17:30N 39°59' W 075°05'0 0.0
2017-Nov-11 17:01N 39°59' W 075°05'0 0.0
2017-Nov-11 16:30N 39°59' W 075°05'0 0.0
2017-Nov-11 16:01N 39°59' W 075°05'0 0.0
2017-Nov-11 15:30N 39°59' W 075°05'0 0.0
2017-Nov-11 15:00N 39°59' W 075°05'0 0.0
2017-Nov-11 14:30N 39°59' W 075°05'0 0.0
2017-Nov-11 14:00N 39°59' W 075°05'0 0.0
2017-Nov-11 13:30N 39°59' W 075°05'0 0.0
2017-Nov-11 13:00N 39°59' W 075°05'0 0.0
2017-Nov-11 12:31N 39°59' W 075°05'0 0.0
2017-Nov-11 12:01N 39°59' W 075°05'0 0.3
2017-Nov-11 11:30N 39°59' W 075°05'4 7.8
2017-Nov-11 11:00N 39°56' W 075°08'3 6.9
2017-Nov-11 10:30N 39°53' W 075°10'2 4.0
2017-Nov-11 10:00N 39°54' W 075°13'1 1.4
2017-Nov-11 09:30N 39°54' W 075°12'0 0.0
2017-Nov-11 09:00N 39°54' W 075°12'0 0.0
2017-Nov-11 08:30N 39°54' W 075°12'0 0.0
2017-Nov-11 08:00N 39°54' W 075°12'0 0.0
2017-Nov-11 07:30N 39°54' W 075°12'0 0.0
2017-Nov-11 07:00N 39°54' W 075°12'0 0.0
2017-Nov-11 06:30N 39°54' W 075°12'0 0.0
2017-Nov-11 06:00N 39°54' W 075°12'0 0.0
2017-Nov-11 05:30N 39°54' W 075°12'0 0.0
2017-Nov-11 05:00N 39°54' W 075°12'0 0.0
2017-Nov-11 04:30N 39°54' W 075°12'0 0.0
2017-Nov-11 04:01N 39°54' W 075°12'0 0.0
2017-Nov-11 03:30N 39°54' W 075°12'0 0.0
2017-Nov-11 03:01N 39°54' W 075°12'0 0.0
2017-Nov-11 02:30N 39°54' W 075°12'0 0.0
2017-Nov-11 02:00N 39°54' W 075°12'0 0.0
2017-Nov-11 01:30N 39°54' W 075°12'0 0.0
2017-Nov-11 01:00N 39°54' W 075°12'0 0.0
2017-Nov-11 00:30N 39°54' W 075°12'0 0.0
2017-Nov-11 00:01N 39°54' W 075°12'0 0.0
2017-Nov-10 23:30N 39°54' W 075°12'0 0.0
2017-Nov-10 23:00N 39°54' W 075°12'0 0.0
2017-Nov-10 22:31N 39°54' W 075°12'0 0.0
2017-Nov-10 22:00N 39°54' W 075°12'0 0.0
2017-Nov-10 21:30N 39°54' W 075°12'0 0.0
2017-Nov-10 21:00N 39°54' W 075°12'0 0.0
2017-Nov-10 20:31N 39°54' W 075°12'0 0.8
2017-Nov-10 20:01N 39°54' W 075°12'0 0.9
2017-Nov-10 19:31N 39°54' W 075°13'0 0.6
2017-Nov-10 19:00N 39°54' W 075°12'2 4.1
2017-Nov-10 18:30N 39°53' W 075°10'3 6.1
2017-Nov-10 18:01N 39°56' W 075°08'3 6.8
2017-Nov-10 17:30N 39°58' W 075°06'1 2.2
2017-Nov-10 17:00N 39°59' W 075°05'0 0.0
2017-Nov-10 16:30N 39°59' W 075°05'0 0.0
2017-Nov-10 16:00N 39°59' W 075°05'0 0.0
2017-Nov-10 15:30N 39°59' W 075°05'0 0.0
2017-Nov-10 15:00N 39°59' W 075°05'0 0.0
2017-Nov-10 14:31N 39°59' W 075°05'0 0.0
2017-Nov-10 14:01N 39°59' W 075°05'0 0.0
2017-Nov-10 13:31N 39°59' W 075°05'0 0.0
2017-Nov-10 13:01N 39°59' W 075°05'0 0.0
2017-Nov-10 12:30N 39°59' W 075°05'3 5.1
2017-Nov-10 12:00N 39°58' W 075°08'4 8.2
2017-Nov-10 11:31N 39°54' W 075°08'1 2.0
2017-Nov-10 11:01N 39°55' W 075°08'0 0.5
2017-Nov-10 10:31N 39°55' W 075°08'0 0.7
2017-Nov-10 10:00N 39°55' W 075°08'3 6.4
2017-Nov-10 09:31N 39°58' W 075°07'2 3.3
2017-Nov-10 09:01N 39°59' W 075°05'3 6.7
2017-Nov-10 08:31N 39°57' W 075°08'4 8.5
2017-Nov-10 08:01N 39°53' W 075°09'3 5.7
2017-Nov-10 07:30N 39°54' W 075°13'1 1.5
2017-Nov-10 07:00N 39°54' W 075°12'0 0.1
2017-Nov-10 06:31N 39°54' W 075°12'0 0.0
2017-Nov-10 06:00N 39°54' W 075°12'0 0.0
2017-Nov-10 05:30N 39°54' W 075°12'0 0.0
2017-Nov-10 05:00N 39°54' W 075°12'0 0.0
2017-Nov-10 04:30N 39°54' W 075°12'0 0.0
2017-Nov-10 04:01N 39°54' W 075°12'0 0.0
2017-Nov-10 03:30N 39°54' W 075°12'0 0.0
2017-Nov-10 03:00N 39°54' W 075°12'0 0.0
2017-Nov-10 02:30N 39°54' W 075°12'0 0.0
2017-Nov-10 02:00N 39°54' W 075°12'0 0.0
2017-Nov-10 01:31N 39°54' W 075°12'0 0.0
2017-Nov-10 01:01N 39°54' W 075°12'1 1.4
2017-Nov-10 00:30N 39°54' W 075°13'1 2.8
2017-Nov-10 00:01N 39°53' W 075°11'3 5.7
2017-Nov-09 23:30N 39°54' W 075°08'3 6.2
2017-Nov-09 23:00N 39°57' W 075°08'3 5.2
2017-Nov-09 22:31N 39°59' W 075°06'1 1.7
2017-Nov-09 22:00N 39°59' W 075°05'0 0.6
2017-Nov-09 21:30N 39°59' W 075°05'4 7.5
2017-Nov-09 21:00N 39°56' W 075°08'2 4.4
2017-Nov-09 20:31N 39°54' W 075°08'1 3.0
2017-Nov-09 20:00N 39°53' W 075°10'2 3.3
2017-Nov-09 19:30N 39°54' W 075°12'0 0.6
2017-Nov-09 19:00N 39°53' W 075°12'0 0.0
2017-Nov-09 18:31N 39°53' W 075°12'0 0.0
2017-Nov-09 18:00N 39°53' W 075°12'0 0.0
2017-Nov-09 17:30N 39°53' W 075°12'0 0.0
2017-Nov-09 17:01N 39°53' W 075°12'0 0.1
2017-Nov-09 16:30N 39°54' W 075°12'0 0.0
2017-Nov-09 16:00N 39°54' W 075°12'0 0.0
2017-Nov-09 15:30N 39°54' W 075°12'0 0.0
2017-Nov-09 15:00N 39°54' W 075°12'0 0.0
2017-Nov-09 14:30N 39°54' W 075°12'0 0.0
2017-Nov-09 14:00N 39°54' W 075°12'2 3.7
2017-Nov-09 13:30N 39°53' W 075°09'1 2.9
2017-Nov-09 13:01N 39°54' W 075°08'2 3.7
2017-Nov-09 12:31N 39°56' W 075°08'4 8.1
2017-Nov-09 12:00N 39°59' W 075°05'0 0.1
2017-Nov-09 11:31N 39°59' W 075°05'3 6.9
2017-Nov-09 11:01N 39°57' W 075°08'4 7.9
2017-Nov-09 10:31N 39°53' W 075°09'3 5.6
2017-Nov-09 10:00N 39°54' W 075°13'0 0.0
2017-Nov-09 09:30N 39°54' W 075°13'0 0.0
2017-Nov-09 09:00N 39°54' W 075°13'0 0.0
2017-Nov-09 08:30N 39°54' W 075°13'0 0.0
2017-Nov-09 08:01N 39°54' W 075°13'0 0.0
2017-Nov-09 07:30N 39°54' W 075°13'0 0.0
2017-Nov-09 07:00N 39°54' W 075°13'0 0.1
2017-Nov-09 06:31N 39°54' W 075°13'2 4.9
2017-Nov-09 06:01N 39°53' W 075°10'3 5.7
2017-Nov-09 05:31N 39°55' W 075°08'3 6.7
2017-Nov-09 05:00N 39°58' W 075°06'1 2.3
2017-Nov-09 04:31N 39°59' W 075°05'4 7.3
2017-Nov-09 04:00N 39°56' W 075°08'3 5.5
2017-Nov-09 03:30N 39°54' W 075°08'1 2.4
2017-Nov-09 03:01N 39°53' W 075°09'2 4.4
2017-Nov-09 02:30N 39°54' W 075°12'1 2.5
2017-Nov-09 02:00N 39°55' W 075°13'2 4.5
2017-Nov-09 01:30N 39°52' W 075°13'4 8.5
2017-Nov-09 01:01N 39°51' W 075°18'4 8.3
2017-Nov-09 00:30N 39°50' W 075°23'4 7.0
2017-Nov-09 00:00N 39°47' W 075°27'4 7.7
2017-Nov-08 23:31N 39°45' W 075°30'2 3.6
2017-Nov-08 23:00N 39°43' W 075°31'1 1.3
2017-Nov-08 22:30N 39°43' W 075°30'4 7.4
2017-Nov-08 22:00N 39°46' W 075°28'3 7.0
2017-Nov-08 21:30N 39°49' W 075°25'3 6.3
2017-Nov-08 21:00N 39°50' W 075°21'3 5.7
2017-Nov-08 20:30N 39°51' W 075°18'3 5.7
2017-Nov-08 20:00N 39°52' W 075°14'3 5.9
2017-Nov-08 19:30N 39°53' W 075°10'2 4.9
2017-Nov-08 19:00N 39°54' W 075°08'0 0.0
2017-Nov-08 18:30N 39°54' W 075°08'0 0.0
2017-Nov-08 18:00N 39°54' W 075°08'0 0.0
2017-Nov-08 17:30N 39°54' W 075°08'0 0.0
2017-Nov-08 17:00N 39°54' W 075°08'0 0.0
2017-Nov-08 16:30N 39°54' W 075°08'0 0.0
2017-Nov-08 16:00N 39°54' W 075°08'0 0.0
2017-Nov-08 15:30N 39°54' W 075°08'0 0.0
2017-Nov-08 15:00N 39°54' W 075°08'0 0.0
2017-Nov-08 14:30N 39°54' W 075°08'1 1.3
2017-Nov-08 14:00N 39°54' W 075°08'0 0.0
2017-Nov-08 13:30N 39°54' W 075°08'2 4.9
2017-Nov-08 13:00N 39°53' W 075°11'1 1.7
2017-Nov-08 12:30N 39°54' W 075°12'0 0.0
2017-Nov-08 12:00N 39°54' W 075°12'0 0.0
2017-Nov-08 11:31N 39°54' W 075°12'0 0.0
2017-Nov-08 11:01N 39°54' W 075°12'0 0.0
2017-Nov-08 10:30N 39°54' W 075°12'0 0.0
2017-Nov-08 10:00N 39°54' W 075°12'0 0.0
2017-Nov-08 09:31N 39°54' W 075°12'0 0.0
2017-Nov-08 09:00N 39°54' W 075°12'0 0.0
2017-Nov-08 08:30N 39°54' W 075°12'0 0.0
2017-Nov-08 08:00N 39°54' W 075°12'0 0.0
2017-Nov-08 07:30N 39°54' W 075°12'0 0.0
2017-Nov-08 07:01N 39°54' W 075°12'0 0.0
2017-Nov-08 06:30N 39°54' W 075°12'0 0.0
2017-Nov-08 06:00N 39°54' W 075°12'0 0.0
2017-Nov-08 05:30N 39°54' W 075°12'0 0.0
2017-Nov-08 05:00N 39°54' W 075°12'0 0.0
2017-Nov-08 04:30N 39°54' W 075°12'0 0.0
2017-Nov-08 04:01N 39°54' W 075°12'0 0.0
2017-Nov-08 03:30N 39°54' W 075°12'0 0.0
2017-Nov-08 03:00N 39°54' W 075°12'0 0.0
2017-Nov-08 02:30N 39°54' W 075°12'0 0.0
2017-Nov-08 02:00N 39°54' W 075°12'0 0.0
2017-Nov-08 01:30N 39°54' W 075°12'0 0.0
2017-Nov-08 01:00N 39°54' W 075°12'0 0.0
2017-Nov-08 00:31N 39°54' W 075°12'0 0.0
2017-Nov-08 00:01N 39°54' W 075°12'3 5.4
2017-Nov-07 23:30N 39°52' W 075°14'4 7.6
2017-Nov-07 23:00N 39°51' W 075°19'4 7.3
2017-Nov-07 22:30N 39°49' W 075°23'1 2.8
2017-Nov-07 22:01N 39°48' W 075°24'0 0.5
2017-Nov-07 21:31N 39°49' W 075°24'4 7.4
2017-Nov-07 21:01N 39°51' W 075°20'3 6.8
2017-Nov-07 20:30N 39°51' W 075°16'3 6.7
2017-Nov-07 20:00N 39°53' W 075°12'2 4.2
2017-Nov-07 19:31N 39°55' W 075°13'  
Track history (hours):
 
Tides and Currents Weather Stations Pressure Air Temp Water Temp Dewpoint Dewpoint Depression Visibility Wind Speed Wind Dir Waves Ship Positions

Taurus

Owner: Kirby Offshore Marine, LLC, Seattle, WA. More information available from US FCC via Universal Licensing System and Coast Guard Vessel Documentation Center.

Last reported at 2017-Nov-17 19:30 UTC. Time now 2017-Nov-17 19:57 UTC.
Position N 39°54' W 075°08'.

Length 24 m.

Type: Ship (hazmat cat B). MMSI: 366910990.

Date/timePositionNaut miles runAvg speedWind from/ knotsBaromVisibWave heightAir tempDewpointWater temp
2017-Nov-17 19:30N 39°54' W 075°08'3 6.0
2017-Nov-17 19:00N 39°57' W 075°08'0 0.0
2017-Nov-17 18:31N 39°57' W 075°08'0 0.0
2017-Nov-17 18:00N 39°57' W 075°08'0 0.0
2017-Nov-17 17:30N 39°57' W 075°08'0 0.2
2017-Nov-17 17:01N 39°57' W 075°08'3 6.9
2017-Nov-17 16:30N 39°54' W 075°08'4 8.0
2017-Nov-17 16:00N 39°52' W 075°13'5 9.9
2017-Nov-17 15:30N 39°51' W 075°19'4 7.6
2017-Nov-17 15:00N 39°49' W 075°23'2 3.8
2017-Nov-17 14:30N 39°48' W 075°25'0 0.1
2017-Nov-17 14:00N 39°48' W 075°25'0 0.4
2017-Nov-17 13:30N 39°48' W 075°25'1 2.0
2017-Nov-17 13:00N 39°49' W 075°24'1 2.3
2017-Nov-17 12:30N 39°50' W 075°23'0 0.0
2017-Nov-16 19:24N 39°50' W 075°23'0 0.0
2017-Nov-16 19:00N 39°50' W 075°23'0 0.0
2017-Nov-16 18:31N 39°50' W 075°23'0 0.0
2017-Nov-16 18:01N 39°50' W 075°23'0 0.0
2017-Nov-16 17:31N 39°50' W 075°23'0 0.1
2017-Nov-16 17:00N 39°50' W 075°23'1 1.9
2017-Nov-16 16:30N 39°49' W 075°24'1 2.1
2017-Nov-16 16:01N 39°50' W 075°23'0 0.0
2017-Nov-16 15:31N 39°50' W 075°23'0 0.0
2017-Nov-16 15:01N 39°50' W 075°23'0 0.0
2017-Nov-16 14:31N 39°50' W 075°23'0 0.0
2017-Nov-16 14:01N 39°50' W 075°23'0 0.0
2017-Nov-16 13:30N 39°50' W 075°23'0 0.1
2017-Nov-16 13:00N 39°50' W 075°23'1 1.7
2017-Nov-16 12:31N 39°50' W 075°22'2 4.3
2017-Nov-16 12:00N 39°51' W 075°19'1 2.8
2017-Nov-16 11:30N 39°51' W 075°18'2 4.0
2017-Nov-16 11:00N 39°51' W 075°20'2 4.8
2017-Nov-16 10:30N 39°50' W 075°23'0 0.0
2017-Nov-15 01:30N 39°50' W 075°23'0 0.1
2017-Nov-15 01:00N 39°50' W 075°23'2 3.6
2017-Nov-15 00:30N 39°48' W 075°25'4 8.2
2017-Nov-15 00:01N 39°46' W 075°29'4 8.3
2017-Nov-14 23:30N 39°42' W 075°31'4 7.8
2017-Nov-14 23:00N 39°39' W 075°33'4 7.2
2017-Nov-14 22:30N 39°35' W 075°33'2 4.3
2017-Nov-14 22:00N 39°33' W 075°32'2 4.4
2017-Nov-14 21:30N 39°34' W 075°29'0 0.2
2017-Nov-14 21:00N 39°34' W 075°29'3 5.9
2017-Nov-14 20:30N 39°33' W 075°32'4 7.5
2017-Nov-14 20:00N 39°36' W 075°34'5 9.5
2017-Nov-14 19:30N 39°40' W 075°32'510.6
2017-Nov-14 19:01N 39°45' W 075°29'510.2
2017-Nov-14 18:30N 39°49' W 075°24'1 1.0
2017-Nov-14 18:00N 39°49' W 075°23'2 4.7
2017-Nov-14 17:30N 39°50' W 075°21'5 9.0
2017-Nov-14 17:00N 39°51' W 075°16'4 8.5
2017-Nov-14 16:30N 39°53' W 075°11'3 5.8
2017-Nov-14 16:01N 39°55' W 075°08'0 0.1
2017-Nov-14 15:30N 39°55' W 075°08'0 0.0
2017-Nov-14 15:00N 39°55' W 075°08'0 0.1
2017-Nov-14 14:31N 39°55' W 075°08'0 0.1
2017-Nov-14 14:01N 39°55' W 075°08'0 0.1
2017-Nov-14 13:31N 39°55' W 075°08'0 0.1
2017-Nov-14 13:01N 39°55' W 075°08'3 6.5
2017-Nov-14 12:30N 39°58' W 075°07'2 3.7
2017-Nov-14 12:00N 39°59' W 075°05'2 4.9
2017-Nov-14 11:30N 39°58' W 075°07'4 8.5
2017-Nov-14 11:01N 39°54' W 075°08'3 5.6
2017-Nov-14 10:31N 39°54' W 075°12'1 1.7
2017-Nov-14 10:00N 39°54' W 075°13'1 1.5
2017-Nov-14 09:31N 39°54' W 075°12'0 0.0
2017-Nov-14 09:01N 39°54' W 075°12'0 0.0
2017-Nov-14 08:31N 39°54' W 075°12'0 0.0
2017-Nov-14 08:01N 39°54' W 075°12'0 0.0
2017-Nov-14 07:31N 39°54' W 075°12'0 0.0
2017-Nov-14 07:01N 39°54' W 075°12'0 0.0
2017-Nov-14 06:30N 39°54' W 075°12'0 0.0
2017-Nov-14 06:01N 39°54' W 075°12'0 0.0
2017-Nov-14 05:31N 39°54' W 075°12'0 0.0
2017-Nov-14 05:01N 39°54' W 075°12'0 0.0
2017-Nov-14 04:31N 39°54' W 075°12'0 0.0
2017-Nov-14 04:01N 39°54' W 075°12'0 0.6
2017-Nov-14 03:31N 39°53' W 075°12'1 1.4
2017-Nov-14 03:01N 39°53' W 075°11'3 5.5
2017-Nov-14 02:30N 39°54' W 075°08'3 6.0
2017-Nov-14 02:00N 39°57' W 075°08'3 5.1
2017-Nov-14 01:31N 39°58' W 075°06'1 2.5
2017-Nov-14 01:00N 39°59' W 075°04'0 1.0
2017-Nov-14 00:31N 39°59' W 075°05'0 0.0
2017-Nov-14 00:01N 39°59' W 075°05'0 0.0
2017-Nov-13 23:30N 39°59' W 075°05'0 0.0
2017-Nov-13 23:00N 39°59' W 075°05'1 2.8
2017-Nov-13 22:30N 39°58' W 075°07'4 7.6
2017-Nov-13 22:00N 39°55' W 075°08'3 0.2
2017-Nov-13 02:00N 39°54' W 075°12'0 0.0
2017-Nov-13 01:31N 39°54' W 075°12'0 0.0
2017-Nov-13 01:00N 39°54' W 075°12'0 0.0
2017-Nov-13 00:30N 39°54' W 075°12'0 0.0
2017-Nov-13 00:00N 39°54' W 075°12'0 0.0
2017-Nov-12 23:30N 39°54' W 075°12'0 0.0
2017-Nov-12 23:00N 39°54' W 075°12'0 0.0
2017-Nov-12 22:31N 39°54' W 075°12'0 0.0
2017-Nov-12 22:00N 39°54' W 075°12'0 0.0
2017-Nov-12 21:31N 39°54' W 075°12'0 0.0
2017-Nov-12 21:01N 39°54' W 075°12'0 0.0
2017-Nov-12 20:30N 39°54' W 075°12'0 0.0
2017-Nov-12 20:00N 39°54' W 075°12'0 0.0
2017-Nov-12 19:30N 39°54' W 075°12'0 0.0
2017-Nov-12 19:00N 39°54' W 075°12'0 0.0
2017-Nov-12 18:31N 39°54' W 075°12'0 0.0
2017-Nov-12 18:00N 39°54' W 075°12'0 0.0
2017-Nov-12 17:31N 39°54' W 075°12'0 0.0
2017-Nov-12 17:00N 39°54' W 075°12'0 0.0
2017-Nov-12 16:30N 39°54' W 075°12'0 0.0
2017-Nov-12 16:00N 39°54' W 075°12'0 0.0
2017-Nov-12 15:30N 39°54' W 075°12'0 0.0
2017-Nov-12 15:00N 39°54' W 075°12'0 0.0
2017-Nov-12 14:31N 39°54' W 075°12'0 0.0
2017-Nov-12 14:00N 39°54' W 075°12'0 0.0
2017-Nov-12 13:30N 39°54' W 075°12'0 0.0
2017-Nov-12 13:00N 39°54' W 075°12'0 0.0
2017-Nov-12 12:30N 39°54' W 075°12'0 0.0
2017-Nov-12 12:00N 39°54' W 075°12'0 0.0
2017-Nov-12 11:30N 39°54' W 075°12'0 0.0
2017-Nov-12 11:00N 39°54' W 075°12'0 0.0
2017-Nov-12 10:31N 39°54' W 075°12'0 0.0
2017-Nov-12 10:00N 39°54' W 075°12'0 0.0
2017-Nov-12 09:30N 39°54' W 075°12'0 0.0
2017-Nov-12 09:01N 39°54' W 075°12'0 0.0
2017-Nov-12 08:31N 39°54' W 075°12'0 0.0
2017-Nov-12 08:00N 39°54' W 075°12'0 0.0
2017-Nov-12 07:31N 39°54' W 075°12'0 0.0
2017-Nov-12 07:00N 39°54' W 075°12'0 0.0
2017-Nov-12 06:30N 39°54' W 075°12'0 0.0
2017-Nov-12 06:01N 39°54' W 075°12'0 0.0
2017-Nov-12 05:31N 39°54' W 075°12'0 0.0
2017-Nov-12 05:00N 39°54' W 075°12'0 0.0
2017-Nov-12 04:31N 39°54' W 075°12'0 0.0
2017-Nov-12 04:00N 39°54' W 075°12'0 0.0
2017-Nov-12 03:30N 39°54' W 075°12'0 0.0
2017-Nov-12 03:00N 39°54' W 075°12'0 0.0
2017-Nov-12 02:30N 39°54' W 075°12'0 0.0
2017-Nov-12 02:00N 39°54' W 075°12'0 0.0
2017-Nov-12 01:30N 39°54' W 075°12'0 0.0
2017-Nov-12 01:00N 39°54' W 075°12'0 0.0
2017-Nov-12 00:30N 39°54' W 075°12'0 0.0
2017-Nov-12 00:00N 39°54' W 075°12'0 0.0
2017-Nov-11 23:30N 39°54' W 075°12'0 0.0
2017-Nov-11 23:00N 39°54' W 075°12'0 0.0
2017-Nov-11 22:30N 39°54' W 075°12'0 0.0
2017-Nov-11 22:00N 39°54' W 075°12'0 0.0
2017-Nov-11 21:30N 39°54' W 075°12'2 3.9
2017-Nov-11 21:01N 39°52' W 075°13'2 3.5
2017-Nov-11 20:30N 39°54' W 075°13'0 0.9
2017-Nov-11 20:00N 39°54' W 075°12'2 5.0
2017-Nov-11 19:30N 39°53' W 075°09'3 6.6
2017-Nov-11 19:00N 39°56' W 075°08'3 6.6
2017-Nov-11 18:30N 39°59' W 075°05'1 1.3
2017-Nov-11 18:00N 39°59' W 075°05'0 0.0
2017-Nov-11 17:30N 39°59' W 075°05'0 0.0
2017-Nov-11 17:01N 39°59' W 075°05'0 0.0
2017-Nov-11 16:30N 39°59' W 075°05'0 0.0
2017-Nov-11 16:01N 39°59' W 075°05'0 0.0
2017-Nov-11 15:30N 39°59' W 075°05'0 0.0
2017-Nov-11 15:00N 39°59' W 075°05'0 0.0
2017-Nov-11 14:30N 39°59' W 075°05'0 0.0
2017-Nov-11 14:00N 39°59' W 075°05'0 0.0
2017-Nov-11 13:30N 39°59' W 075°05'0 0.0
2017-Nov-11 13:00N 39°59' W 075°05'0 0.0
2017-Nov-11 12:31N 39°59' W 075°05'0 0.0
2017-Nov-11 12:01N 39°59' W 075°05'0 0.3
2017-Nov-11 11:30N 39°59' W 075°05'4 7.8
2017-Nov-11 11:00N 39°56' W 075°08'3 6.9
2017-Nov-11 10:30N 39°53' W 075°10'2 4.0
2017-Nov-11 10:00N 39°54' W 075°13'1 1.4
2017-Nov-11 09:30N 39°54' W 075°12'0 0.0
2017-Nov-11 09:00N 39°54' W 075°12'0 0.0
2017-Nov-11 08:30N 39°54' W 075°12'0 0.0
2017-Nov-11 08:00N 39°54' W 075°12'0 0.0
2017-Nov-11 07:30N 39°54' W 075°12'0 0.0
2017-Nov-11 07:00N 39°54' W 075°12'0 0.0
2017-Nov-11 06:30N 39°54' W 075°12'0 0.0
2017-Nov-11 06:00N 39°54' W 075°12'0 0.0
2017-Nov-11 05:30N 39°54' W 075°12'0 0.0
2017-Nov-11 05:00N 39°54' W 075°12'0 0.0
2017-Nov-11 04:30N 39°54' W 075°12'0 0.0
2017-Nov-11 04:01N 39°54' W 075°12'0 0.0
2017-Nov-11 03:30N 39°54' W 075°12'0 0.0
2017-Nov-11 03:01N 39°54' W 075°12'0 0.0
2017-Nov-11 02:30N 39°54' W 075°12'0 0.0
2017-Nov-11 02:00N 39°54' W 075°12'0 0.0
2017-Nov-11 01:30N 39°54' W 075°12'0 0.0
2017-Nov-11 01:00N 39°54' W 075°12'0 0.0
2017-Nov-11 00:30N 39°54' W 075°12'0 0.0
2017-Nov-11 00:01N 39°54' W 075°12'0 0.0
2017-Nov-10 23:30N 39°54' W 075°12'0 0.0
2017-Nov-10 23:00N 39°54' W 075°12'0 0.0
2017-Nov-10 22:31N 39°54' W 075°12'0 0.0
2017-Nov-10 22:00N 39°54' W 075°12'0 0.0
2017-Nov-10 21:30N 39°54' W 075°12'0 0.0
2017-Nov-10 21:00N 39°54' W 075°12'0 0.0
2017-Nov-10 20:31N 39°54' W 075°12'0 0.8
2017-Nov-10 20:01N 39°54' W 075°12'0 0.9
2017-Nov-10 19:31N 39°54' W 075°13'0 0.6
2017-Nov-10 19:00N 39°54' W 075°12'2 4.1
2017-Nov-10 18:30N 39°53' W 075°10'3 6.1
2017-Nov-10 18:01N 39°56' W 075°08'3 6.8
2017-Nov-10 17:30N 39°58' W 075°06'1 2.2
2017-Nov-10 17:00N 39°59' W 075°05'0 0.0
2017-Nov-10 16:30N 39°59' W 075°05'0 0.0
2017-Nov-10 16:00N 39°59' W 075°05'0 0.0
2017-Nov-10 15:30N 39°59' W 075°05'0 0.0
2017-Nov-10 15:00N 39°59' W 075°05'0 0.0
2017-Nov-10 14:31N 39°59' W 075°05'0 0.0
2017-Nov-10 14:01N 39°59' W 075°05'0 0.0
2017-Nov-10 13:31N 39°59' W 075°05'0 0.0
2017-Nov-10 13:01N 39°59' W 075°05'0 0.0
2017-Nov-10 12:30N 39°59' W 075°05'3 5.1
2017-Nov-10 12:00N 39°58' W 075°08'4 8.2
2017-Nov-10 11:31N 39°54' W 075°08'1 2.0
2017-Nov-10 11:01N 39°55' W 075°08'0 0.5
2017-Nov-10 10:31N 39°55' W 075°08'0 0.7
2017-Nov-10 10:00N 39°55' W 075°08'3 6.4
2017-Nov-10 09:31N 39°58' W 075°07'2 3.3
2017-Nov-10 09:01N 39°59' W 075°05'3 6.7
2017-Nov-10 08:31N 39°57' W 075°08'4 8.5
2017-Nov-10 08:01N 39°53' W 075°09'3 5.7
2017-Nov-10 07:30N 39°54' W 075°13'1 1.5
2017-Nov-10 07:00N 39°54' W 075°12'0 0.1
2017-Nov-10 06:31N 39°54' W 075°12'0 0.0
2017-Nov-10 06:00N 39°54' W 075°12'0 0.0
2017-Nov-10 05:30N 39°54' W 075°12'0 0.0
2017-Nov-10 05:00N 39°54' W 075°12'0 0.0
2017-Nov-10 04:30N 39°54' W 075°12'0 0.0
2017-Nov-10 04:01N 39°54' W 075°12'0 0.0
2017-Nov-10 03:30N 39°54' W 075°12'0 0.0
2017-Nov-10 03:00N 39°54' W 075°12'0 0.0
2017-Nov-10 02:30N 39°54' W 075°12'0 0.0
2017-Nov-10 02:00N 39°54' W 075°12'0 0.0
2017-Nov-10 01:31N 39°54' W 075°12'0 0.0
2017-Nov-10 01:01N 39°54' W 075°12'1 1.4
2017-Nov-10 00:30N 39°54' W 075°13'1 2.8
2017-Nov-10 00:01N 39°53' W 075°11'3 5.7
2017-Nov-09 23:30N 39°54' W 075°08'3 6.2
2017-Nov-09 23:00N 39°57' W 075°08'3 5.2
2017-Nov-09 22:31N 39°59' W 075°06'1 1.7
2017-Nov-09 22:00N 39°59' W 075°05'0 0.6
2017-Nov-09 21:30N 39°59' W 075°05'4 7.5
2017-Nov-09 21:00N 39°56' W 075°08'2 4.4
2017-Nov-09 20:31N 39°54' W 075°08'1 3.0
2017-Nov-09 20:00N 39°53' W 075°10'2 3.3
2017-Nov-09 19:30N 39°54' W 075°12'0 0.6
2017-Nov-09 19:00N 39°53' W 075°12'0 0.0
2017-Nov-09 18:31N 39°53' W 075°12'0 0.0
2017-Nov-09 18:00N 39°53' W 075°12'0 0.0
2017-Nov-09 17:30N 39°53' W 075°12'0 0.0
2017-Nov-09 17:01N 39°53' W 075°12'0 0.1
2017-Nov-09 16:30N 39°54' W 075°12'0 0.0
2017-Nov-09 16:00N 39°54' W 075°12'0 0.0
2017-Nov-09 15:30N 39°54' W 075°12'0 0.0
2017-Nov-09 15:00N 39°54' W 075°12'0 0.0
2017-Nov-09 14:30N 39°54' W 075°12'0 0.0
2017-Nov-09 14:00N 39°54' W 075°12'2 3.7
2017-Nov-09 13:30N 39°53' W 075°09'1 2.9
2017-Nov-09 13:01N 39°54' W 075°08'2 3.7
2017-Nov-09 12:31N 39°56' W 075°08'4 8.1
2017-Nov-09 12:00N 39°59' W 075°05'0 0.1
2017-Nov-09 11:31N 39°59' W 075°05'3 6.9
2017-Nov-09 11:01N 39°57' W 075°08'4 7.9
2017-Nov-09 10:31N 39°53' W 075°09'3 5.6
2017-Nov-09 10:00N 39°54' W 075°13'0 0.0
2017-Nov-09 09:30N 39°54' W 075°13'0 0.0
2017-Nov-09 09:00N 39°54' W 075°13'0 0.0
2017-Nov-09 08:30N 39°54' W 075°13'0 0.0
2017-Nov-09 08:01N 39°54' W 075°13'0 0.0
2017-Nov-09 07:30N 39°54' W 075°13'0 0.0
2017-Nov-09 07:00N 39°54' W 075°13'0 0.1
2017-Nov-09 06:31N 39°54' W 075°13'2 4.9
2017-Nov-09 06:01N 39°53' W 075°10'3 5.7
2017-Nov-09 05:31N 39°55' W 075°08'3 6.7
2017-Nov-09 05:00N 39°58' W 075°06'1 2.3
2017-Nov-09 04:31N 39°59' W 075°05'4 7.3
2017-Nov-09 04:00N 39°56' W 075°08'3 5.5
2017-Nov-09 03:30N 39°54' W 075°08'1 2.4
2017-Nov-09 03:01N 39°53' W 075°09'2 4.4
2017-Nov-09 02:30N 39°54' W 075°12'1 2.5
2017-Nov-09 02:00N 39°55' W 075°13'2 4.5
2017-Nov-09 01:30N 39°52' W 075°13'4 8.5
2017-Nov-09 01:01N 39°51' W 075°18'4 8.3
2017-Nov-09 00:30N 39°50' W 075°23'4 7.0
2017-Nov-09 00:00N 39°47' W 075°27'4 7.7
2017-Nov-08 23:31N 39°45' W 075°30'2 3.6
2017-Nov-08 23:00N 39°43' W 075°31'1 1.3
2017-Nov-08 22:30N 39°43' W 075°30'4 7.4
2017-Nov-08 22:00N 39°46' W 075°28'3 7.0
2017-Nov-08 21:30N 39°49' W 075°25'3 6.3
2017-Nov-08 21:00N 39°50' W 075°21'3 5.7
2017-Nov-08 20:30N 39°51' W 075°18'3 5.7
2017-Nov-08 20:00N 39°52' W 075°14'3 5.9
2017-Nov-08 19:30N 39°53' W 075°10'2 4.9
2017-Nov-08 19:00N 39°54' W 075°08'0 0.0
2017-Nov-08 18:30N 39°54' W 075°08'0 0.0
2017-Nov-08 18:00N 39°54' W 075°08'0 0.0
2017-Nov-08 17:30N 39°54' W 075°08'0 0.0
2017-Nov-08 17:00N 39°54' W 075°08'0 0.0
2017-Nov-08 16:30N 39°54' W 075°08'0 0.0
2017-Nov-08 16:00N 39°54' W 075°08'0 0.0
2017-Nov-08 15:30N 39°54' W 075°08'0 0.0
2017-Nov-08 15:00N 39°54' W 075°08'0 0.0
2017-Nov-08 14:30N 39°54' W 075°08'1 1.3
2017-Nov-08 14:00N 39°54' W 075°08'0 0.0
2017-Nov-08 13:30N 39°54' W 075°08'2 4.9
2017-Nov-08 13:00N 39°53' W 075°11'1 1.7
2017-Nov-08 12:30N 39°54' W 075°12'0 0.0
2017-Nov-08 12:00N 39°54' W 075°12'0 0.0
2017-Nov-08 11:31N 39°54' W 075°12'0 0.0
2017-Nov-08 11:01N 39°54' W 075°12'0 0.0
2017-Nov-08 10:30N 39°54' W 075°12'0 0.0
2017-Nov-08 10:00N 39°54' W 075°12'0 0.0
2017-Nov-08 09:31N 39°54' W 075°12'0 0.0
2017-Nov-08 09:00N 39°54' W 075°12'0 0.0
2017-Nov-08 08:30N 39°54' W 075°12'0 0.0
2017-Nov-08 08:00N 39°54' W 075°12'0 0.0
2017-Nov-08 07:30N 39°54' W 075°12'0 0.0
2017-Nov-08 07:01N 39°54' W 075°12'0 0.0
2017-Nov-08 06:30N 39°54' W 075°12'0 0.0
2017-Nov-08 06:00N 39°54' W 075°12'0 0.0
2017-Nov-08 05:30N 39°54' W 075°12'0 0.0
2017-Nov-08 05:00N 39°54' W 075°12'0 0.0
2017-Nov-08 04:30N 39°54' W 075°12'0 0.0
2017-Nov-08 04:01N 39°54' W 075°12'0 0.0
2017-Nov-08 03:30N 39°54' W 075°12'0 0.0
2017-Nov-08 03:00N 39°54' W 075°12'0 0.0
2017-Nov-08 02:30N 39°54' W 075°12'0 0.0
2017-Nov-08 02:00N 39°54' W 075°12'0 0.0
2017-Nov-08 01:30N 39°54' W 075°12'0 0.0
2017-Nov-08 01:00N 39°54' W 075°12'0 0.0
2017-Nov-08 00:31N 39°54' W 075°12'0 0.0
2017-Nov-08 00:01N 39°54' W 075°12'3 5.4
2017-Nov-07 23:30N 39°52' W 075°14'4 7.6
2017-Nov-07 23:00N 39°51' W 075°19'4 7.3
2017-Nov-07 22:30N 39°49' W 075°23'1 2.8
2017-Nov-07 22:01N 39°48' W 075°24'0 0.5
2017-Nov-07 21:31N 39°49' W 075°24'4 7.4
2017-Nov-07 21:01N 39°51' W 075°20'3 6.8
2017-Nov-07 20:30N 39°51' W 075°16'3 6.7
2017-Nov-07 20:00N 39°53' W 075°12'2 4.2
2017-Nov-07 19:31N 39°55' W 075°13'  

Dump ship's entire track history